sensor_id;sensor_type;location;lat;lon;timestamp;pressure;altitude;pressure_sealevel;temperature;humidity
13705;BME280;6924;52.122;9.952;2023-08-24T00:01:33;100787.13;;;18.11;96.35
13705;BME280;6924;52.122;9.952;2023-08-24T00:04:00;100787.59;;;18.13;95.96
13705;BME280;6924;52.122;9.952;2023-08-24T00:06:26;100790.81;;;18.11;96.13
13705;BME280;6924;52.122;9.952;2023-08-24T00:08:53;100787.13;;;18.11;96.43
13705;BME280;6924;52.122;9.952;2023-08-24T00:11:20;100794.00;;;18.10;96.86
13705;BME280;6924;52.122;9.952;2023-08-24T00:13:47;100792.38;;;18.09;96.95
13705;BME280;6924;52.122;9.952;2023-08-24T00:16:18;100790.69;;;18.08;97.05
13705;BME280;6924;52.122;9.952;2023-08-24T00:18:44;100780.44;;;18.07;97.00
13705;BME280;6924;52.122;9.952;2023-08-24T00:21:13;100784.84;;;18.04;96.86
13705;BME280;6924;52.122;9.952;2023-08-24T00:23:42;100785.69;;;18.05;97.11
13705;BME280;6924;52.122;9.952;2023-08-24T00:26:08;100784.38;;;18.02;97.36
13705;BME280;6924;52.122;9.952;2023-08-24T00:28:35;100788.81;;;18.00;97.44
13705;BME280;6924;52.122;9.952;2023-08-24T00:31:01;100790.84;;;17.99;97.51
13705;BME280;6924;52.122;9.952;2023-08-24T00:33:29;100782.84;;;17.92;98.07
13705;BME280;6924;52.122;9.952;2023-08-24T00:35:59;100784.50;;;17.93;98.47
13705;BME280;6924;52.122;9.952;2023-08-24T00:38:25;100786.56;;;17.93;98.71
13705;BME280;6924;52.122;9.952;2023-08-24T00:40:52;100780.69;;;17.89;98.84
13705;BME280;6924;52.122;9.952;2023-08-24T00:43:19;100773.69;;;17.87;98.56
13705;BME280;6924;52.122;9.952;2023-08-24T00:45:49;100780.13;;;17.84;98.47
13705;BME280;6924;52.122;9.952;2023-08-24T00:48:16;100774.41;;;17.84;98.86
13705;BME280;6924;52.122;9.952;2023-08-24T00:50:44;100775.06;;;17.81;98.56
13705;BME280;6924;52.122;9.952;2023-08-24T00:53:11;100781.63;;;17.81;98.73
13705;BME280;6924;52.122;9.952;2023-08-24T00:55:37;100778.28;;;17.79;98.87
13705;BME280;6924;52.122;9.952;2023-08-24T00:58:04;100775.81;;;17.77;99.02
13705;BME280;6924;52.122;9.952;2023-08-24T01:00:32;100779.00;;;17.76;99.04
13705;BME280;6924;52.122;9.952;2023-08-24T01:02:58;100773.28;;;17.76;98.99
13705;BME280;6924;52.122;9.952;2023-08-24T01:05:25;100781.03;;;17.75;99.41
13705;BME280;6924;52.122;9.952;2023-08-24T01:07:52;100771.25;;;17.76;99.25
13705;BME280;6924;52.122;9.952;2023-08-24T01:10:19;100765.91;;;17.75;99.13
13705;BME280;6924;52.122;9.952;2023-08-24T01:12:54;100769.00;;;17.70;99.32
13705;BME280;6924;52.122;9.952;2023-08-24T01:15:31;100757.94;;;17.56;100.00
13705;BME280;6924;52.122;9.952;2023-08-24T01:18:02;100763.63;;;17.44;100.00
13705;BME280;6924;52.122;9.952;2023-08-24T01:20:30;100767.09;;;17.49;100.00
13705;BME280;6924;52.122;9.952;2023-08-24T01:23:06;100756.97;;;17.52;100.00
13705;BME280;6924;52.122;9.952;2023-08-24T01:25:40;100768.88;;;17.54;100.00
13705;BME280;6924;52.122;9.952;2023-08-24T01:28:11;100785.56;;;17.52;100.00
13705;BME280;6924;52.122;9.952;2023-08-24T01:30:39;100769.13;;;17.49;100.00
13705;BME280;6924;52.122;9.952;2023-08-24T01:33:06;100772.47;;;17.51;100.00
13705;BME280;6924;52.122;9.952;2023-08-24T01:35:37;100777.22;;;17.47;100.00
13705;BME280;6924;52.122;9.952;2023-08-24T01:38:04;100771.03;;;17.45;100.00
13705;BME280;6924;52.122;9.952;2023-08-24T01:40:36;100776.41;;;17.46;100.00
13705;BME280;6924;52.122;9.952;2023-08-24T01:43:07;100773.91;;;17.45;100.00
13705;BME280;6924;52.122;9.952;2023-08-24T01:45:38;100776.38;;;17.34;100.00
13705;BME280;6924;52.122;9.952;2023-08-24T01:48:09;100773.50;;;17.22;100.00
13705;BME280;6924;52.122;9.952;2023-08-24T01:50:35;100769.34;;;17.19;100.00
13705;BME280;6924;52.122;9.952;2023-08-24T01:53:03;100776.84;;;17.11;100.00
13705;BME280;6924;52.122;9.952;2023-08-24T01:55:30;100769.56;;;17.14;100.00
13705;BME280;6924;52.122;9.952;2023-08-24T01:57:56;100768.84;;;17.17;100.00
13705;BME280;6924;52.122;9.952;2023-08-24T02:00:23;100771.00;;;17.08;100.00
13705;BME280;6924;52.122;9.952;2023-08-24T02:02:51;100765.75;;;16.98;100.00
13705;BME280;6924;52.122;9.952;2023-08-24T02:05:17;100765.25;;;16.96;100.00
13705;BME280;6924;52.122;9.952;2023-08-24T02:07:44;100771.56;;;17.01;100.00
13705;BME280;6924;52.122;9.952;2023-08-24T02:10:10;100768.38;;;17.03;100.00
13705;BME280;6924;52.122;9.952;2023-08-24T02:12:37;100759.44;;;17.04;100.00
13705;BME280;6924;52.122;9.952;2023-08-24T02:15:04;100760.03;;;16.98;100.00
13705;BME280;6924;52.122;9.952;2023-08-24T02:17:31;100749.44;;;16.98;100.00
13705;BME280;6924;52.122;9.952;2023-08-24T02:20:00;100755.50;;;16.97;100.00
13705;BME280;6924;52.122;9.952;2023-08-24T02:22:28;100757.53;;;16.96;100.00
13705;BME280;6924;52.122;9.952;2023-08-24T02:24:55;100756.69;;;16.96;100.00
13705;BME280;6924;52.122;9.952;2023-08-24T02:27:21;100754.19;;;16.94;100.00
13705;BME280;6924;52.122;9.952;2023-08-24T02:29:48;100754.53;;;16.92;100.00
13705;BME280;6924;52.122;9.952;2023-08-24T02:32:14;100748.31;;;16.90;100.00
13705;BME280;6924;52.122;9.952;2023-08-24T02:34:40;100745.84;;;16.89;100.00
13705;BME280;6924;52.122;9.952;2023-08-24T02:37:09;100743.00;;;16.89;100.00
13705;BME280;6924;52.122;9.952;2023-08-24T02:39:35;100744.03;;;16.84;98.96
13705;BME280;6924;52.122;9.952;2023-08-24T02:42:02;100737.84;;;16.82;98.81
13705;BME280;6924;52.122;9.952;2023-08-24T02:44:28;100739.56;;;16.74;98.83
13705;BME280;6924;52.122;9.952;2023-08-24T02:46:56;100741.59;;;16.74;98.61
13705;BME280;6924;52.122;9.952;2023-08-24T02:49:23;100747.66;;;16.72;99.40
13705;BME280;6924;52.122;9.952;2023-08-24T02:51:50;100741.81;;;16.69;99.88
13705;BME280;6924;52.122;9.952;2023-08-24T02:54:17;100732.78;;;16.67;100.00
13705;BME280;6924;52.122;9.952;2023-08-24T02:56:44;100732.78;;;16.67;100.00
13705;BME280;6924;52.122;9.952;2023-08-24T02:59:10;100727.41;;;16.65;100.00
13705;BME280;6924;52.122;9.952;2023-08-24T03:01:37;100728.56;;;16.64;100.00
13705;BME280;6924;52.122;9.952;2023-08-24T03:04:06;100718.69;;;16.62;100.00
13705;BME280;6924;52.122;9.952;2023-08-24T03:06:33;100725.25;;;16.62;100.00
13705;BME280;6924;52.122;9.952;2023-08-24T03:09:00;100724.41;;;16.62;100.00
13705;BME280;6924;52.122;9.952;2023-08-24T03:11:30;100724.31;;;16.58;100.00
13705;BME280;6924;52.122;9.952;2023-08-24T03:13:57;100719.66;;;16.53;100.00
13705;BME280;6924;52.122;9.952;2023-08-24T03:16:23;100718.78;;;16.53;100.00
13705;BME280;6924;52.122;9.952;2023-08-24T03:18:50;100722.03;;;16.51;100.00
13705;BME280;6924;52.122;9.952;2023-08-24T03:21:16;100731.75;;;16.50;100.00
13705;BME280;6924;52.122;9.952;2023-08-24T03:23:43;100724.59;;;16.44;100.00
13705;BME280;6924;52.122;9.952;2023-08-24T03:26:09;100727.81;;;16.43;100.00
13705;BME280;6924;52.122;9.952;2023-08-24T03:28:37;100736.22;;;16.39;100.00
13705;BME280;6924;52.122;9.952;2023-08-24T03:31:06;100741.13;;;16.39;100.00
13705;BME280;6924;52.122;9.952;2023-08-24T03:33:32;100734.09;;;16.36;100.00
13705;BME280;6924;52.122;9.952;2023-08-24T03:35:59;100730.81;;;16.25;100.00
13705;BME280;6924;52.122;9.952;2023-08-24T03:38:27;100732.28;;;16.10;100.00
13705;BME280;6924;52.122;9.952;2023-08-24T03:40:59;100732.75;;;15.91;100.00
13705;BME280;6924;52.122;9.952;2023-08-24T03:43:26;100738.72;;;16.07;100.00
13705;BME280;6924;52.122;9.952;2023-08-24T03:45:54;100737.28;;;16.14;100.00
13705;BME280;6924;52.122;9.952;2023-08-24T03:48:19;100747.31;;;16.20;100.00
13705;BME280;6924;52.122;9.952;2023-08-24T03:50:45;100741.28;;;16.21;100.00
13705;BME280;6924;52.122;9.952;2023-08-24T03:53:12;100731.03;;;16.20;100.00
13705;BME280;6924;52.122;9.952;2023-08-24T03:55:38;100708.75;;;16.14;100.00
13705;BME280;6924;52.122;9.952;2023-08-24T03:58:05;100722.94;;;16.22;100.00
13705;BME280;6924;52.122;9.952;2023-08-24T04:00:31;100717.94;;;16.19;100.00
13705;BME280;6924;52.122;9.952;2023-08-24T04:02:59;100731.31;;;16.06;100.00
13705;BME280;6924;52.122;9.952;2023-08-24T04:05:26;100731.03;;;15.99;100.00
13705;BME280;6924;52.122;9.952;2023-08-24T04:07:53;100735.22;;;16.02;100.00
13705;BME280;6924;52.122;9.952;2023-08-24T04:10:19;100735.84;;;16.07;100.00
13705;BME280;6924;52.122;9.952;2023-08-24T04:12:46;100735.47;;;16.09;100.00
13705;BME280;6924;52.122;9.952;2023-08-24T04:15:12;100737.50;;;16.08;100.00
13705;BME280;6924;52.122;9.952;2023-08-24T04:17:39;100733.81;;;16.08;100.00
13705;BME280;6924;52.122;9.952;2023-08-24T04:20:08;100737.16;;;16.10;100.00
13705;BME280;6924;52.122;9.952;2023-08-24T04:22:35;100732.28;;;16.10;100.00
13705;BME280;6924;52.122;9.952;2023-08-24T04:25:02;100747.88;;;16.13;100.00
13705;BME280;6924;52.122;9.952;2023-08-24T04:27:29;100752.75;;;16.13;100.00
13705;BME280;6924;52.122;9.952;2023-08-24T04:29:56;100747.59;;;16.06;100.00
13705;BME280;6924;52.122;9.952;2023-08-24T04:32:22;100748.91;;;16.08;100.00
13705;BME280;6924;52.122;9.952;2023-08-24T04:34:49;100749.75;;;16.09;100.00
13705;BME280;6924;52.122;9.952;2023-08-24T04:37:17;100738.81;;;16.11;100.00
13705;BME280;6924;52.122;9.952;2023-08-24T04:39:43;100747.88;;;16.13;100.00
13705;BME280;6924;52.122;9.952;2023-08-24T04:42:10;100744.19;;;16.13;100.00
13705;BME280;6924;52.122;9.952;2023-08-24T04:44:36;100758.31;;;16.09;100.00
13705;BME280;6924;52.122;9.952;2023-08-24T04:47:03;100754.41;;;16.14;100.00
13705;BME280;6924;52.122;9.952;2023-08-24T04:49:29;100752.41;;;16.14;100.00
13705;BME280;6924;52.122;9.952;2023-08-24T04:51:56;100745.50;;;16.15;100.00
13705;BME280;6924;52.122;9.952;2023-08-24T04:54:24;100743.97;;;16.18;100.00
13705;BME280;6924;52.122;9.952;2023-08-24T04:56:50;100758.72;;;16.20;100.00
13705;BME280;6924;52.122;9.952;2023-08-24T04:59:17;100762.06;;;16.22;100.00
13705;BME280;6924;52.122;9.952;2023-08-24T05:01:43;100771.13;;;16.24;100.00
13705;BME280;6924;52.122;9.952;2023-08-24T05:04:10;100769.25;;;16.28;100.00
13705;BME280;6924;52.122;9.952;2023-08-24T05:06:36;100771.06;;;16.32;100.00
13705;BME280;6924;52.122;9.952;2023-08-24T05:09:03;100768.34;;;16.36;100.00
13705;BME280;6924;52.122;9.952;2023-08-24T05:11:31;100756.22;;;16.39;100.00
13705;BME280;6924;52.122;9.952;2023-08-24T05:13:57;100750.66;;;16.43;100.00
13705;BME280;6924;52.122;9.952;2023-08-24T05:16:24;100747.31;;;16.41;100.00
13705;BME280;6924;52.122;9.952;2023-08-24T05:18:50;100755.19;;;16.23;100.00
13705;BME280;6924;52.122;9.952;2023-08-24T05:21:17;100755.81;;;16.28;100.00
13705;BME280;6924;52.122;9.952;2023-08-24T05:23:44;100756.63;;;16.29;100.00
13705;BME280;6924;52.122;9.952;2023-08-24T05:26:10;100758.59;;;16.37;100.00
13705;BME280;6924;52.122;9.952;2023-08-24T05:28:38;100743.75;;;16.44;100.00
13705;BME280;6924;52.122;9.952;2023-08-24T05:31:04;100749.22;;;16.49;100.00
13705;BME280;6924;52.122;9.952;2023-08-24T05:33:31;100743.66;;;16.52;100.00
13705;BME280;6924;52.122;9.952;2023-08-24T05:35:58;100742.13;;;16.55;100.00
13705;BME280;6924;52.122;9.952;2023-08-24T05:38:24;100760.56;;;16.58;100.00
13705;BME280;6924;52.122;9.952;2023-08-24T05:40:51;100748.09;;;16.62;100.00
13705;BME280;6924;52.122;9.952;2023-08-24T05:43:18;100748.22;;;16.66;100.00
13705;BME280;6924;52.122;9.952;2023-08-24T05:45:47;100753.94;;;16.66;100.00
13705;BME280;6924;52.122;9.952;2023-08-24T05:48:14;100761.69;;;16.65;100.00
13705;BME280;6924;52.122;9.952;2023-08-24T05:50:43;100762.66;;;16.69;100.00
13705;BME280;6924;52.122;9.952;2023-08-24T05:53:09;100764.09;;;16.76;100.00
13705;BME280;6924;52.122;9.952;2023-08-24T05:55:36;100758.03;;;16.77;100.00
13705;BME280;6924;52.122;9.952;2023-08-24T05:58:03;100758.50;;;16.79;100.00
13705;BME280;6924;52.122;9.952;2023-08-24T06:00:30;100752.25;;;16.86;100.00
13705;BME280;6924;52.122;9.952;2023-08-24T06:02:57;100746.66;;;16.89;100.00
13705;BME280;6924;52.122;9.952;2023-08-24T06:05:24;100755.00;;;16.94;100.00
13705;BME280;6924;52.122;9.952;2023-08-24T06:07:51;100760.84;;;16.98;100.00
13705;BME280;6924;52.122;9.952;2023-08-24T06:10:18;100758.59;;;17.04;100.00
13705;BME280;6924;52.122;9.952;2023-08-24T06:12:44;100749.81;;;17.09;100.00
13705;BME280;6924;52.122;9.952;2023-08-24T06:15:11;100765.88;;;17.13;100.00
13705;BME280;6924;52.122;9.952;2023-08-24T06:17:38;100755.78;;;17.16;100.00
13705;BME280;6924;52.122;9.952;2023-08-24T06:20:08;100752.19;;;17.19;100.00
13705;BME280;6924;52.122;9.952;2023-08-24T06:22:36;100740.88;;;17.23;100.00
13705;BME280;6924;52.122;9.952;2023-08-24T06:25:03;100739.00;;;17.27;100.00
13705;BME280;6924;52.122;9.952;2023-08-24T06:27:30;100732.06;;;17.28;100.00
13705;BME280;6924;52.122;9.952;2023-08-24T06:29:57;100720.28;;;17.29;100.00
13705;BME280;6924;52.122;9.952;2023-08-24T06:32:23;100711.34;;;17.31;100.00
13705;BME280;6924;52.122;9.952;2023-08-24T06:34:49;100714.31;;;17.34;100.00
13705;BME280;6924;52.122;9.952;2023-08-24T06:37:18;100699.69;;;17.36;100.00
13705;BME280;6924;52.122;9.952;2023-08-24T06:39:44;100695.25;;;17.39;100.00
13705;BME280;6924;52.122;9.952;2023-08-24T06:42:11;100696.56;;;17.41;100.00
13705;BME280;6924;52.122;9.952;2023-08-24T06:44:37;100690.84;;;17.41;100.00
13705;BME280;6924;52.122;9.952;2023-08-24T06:47:04;100688.00;;;17.41;100.00
13705;BME280;6924;52.122;9.952;2023-08-24T06:49:30;100686.44;;;17.44;100.00
13705;BME280;6924;52.122;9.952;2023-08-24T06:51:57;100681.19;;;17.46;100.00
13705;BME280;6924;52.122;9.952;2023-08-24T06:54:24;100673.94;;;17.48;100.00
13705;BME280;6924;52.122;9.952;2023-08-24T06:56:51;100670.00;;;17.53;100.00
13705;BME280;6924;52.122;9.952;2023-08-24T06:59:17;100674.03;;;17.52;100.00
13705;BME280;6924;52.122;9.952;2023-08-24T07:01:44;100689.06;;;17.49;100.00
13705;BME280;6924;52.122;9.952;2023-08-24T07:04:12;100694.66;;;17.45;100.00
13705;BME280;6924;52.122;9.952;2023-08-24T07:06:39;100686.81;;;17.42;100.00
13705;BME280;6924;52.122;9.952;2023-08-24T07:09:05;100691.19;;;17.52;100.00
13705;BME280;6924;52.122;9.952;2023-08-24T07:11:34;100686.56;;;17.60;100.00
13705;BME280;6924;52.122;9.952;2023-08-24T07:14:00;100691.66;;;17.66;100.00
13705;BME280;6924;52.122;9.952;2023-08-24T07:16:27;100691.41;;;17.71;100.00
13705;BME280;6924;52.122;9.952;2023-08-24T07:18:54;100681.88;;;17.80;100.00
13705;BME280;6924;52.122;9.952;2023-08-24T07:21:20;100682.84;;;17.84;100.00
13705;BME280;6924;52.122;9.952;2023-08-24T07:23:47;100679.38;;;17.90;100.00
13705;BME280;6924;52.122;9.952;2023-08-24T07:26:13;100678.75;;;17.97;100.00
13705;BME280;6924;52.122;9.952;2023-08-24T07:28:41;100680.13;;;18.03;100.00
13705;BME280;6924;52.122;9.952;2023-08-24T07:31:08;100680.72;;;18.09;100.00
13705;BME280;6924;52.122;9.952;2023-08-24T07:33:35;100667.84;;;18.15;100.00
13705;BME280;6924;52.122;9.952;2023-08-24T07:36:02;100664.34;;;18.22;100.00
13705;BME280;6924;52.122;9.952;2023-08-24T07:38:29;100654.94;;;18.21;100.00
13705;BME280;6924;52.122;9.952;2023-08-24T07:40:56;100651.00;;;18.13;100.00
13705;BME280;6924;52.122;9.952;2023-08-24T07:43:22;100643.47;;;18.21;100.00
13705;BME280;6924;52.122;9.952;2023-08-24T07:45:50;100644.97;;;18.31;100.00
13705;BME280;6924;52.122;9.952;2023-08-24T07:48:17;100650.00;;;18.50;100.00
13705;BME280;6924;52.122;9.952;2023-08-24T07:50:44;100645.03;;;18.63;100.00
13705;BME280;6924;52.122;9.952;2023-08-24T07:53:10;100642.44;;;18.73;100.00
13705;BME280;6924;52.122;9.952;2023-08-24T07:55:37;100632.34;;;18.92;100.00
13705;BME280;6924;52.122;9.952;2023-08-24T07:58:03;100631.94;;;18.93;100.00
13705;BME280;6924;52.122;9.952;2023-08-24T08:00:30;100638.69;;;19.01;100.00
13705;BME280;6924;52.122;9.952;2023-08-24T08:02:58;100640.72;;;19.16;100.00
13705;BME280;6924;52.122;9.952;2023-08-24T08:05:24;100639.50;;;19.17;100.00
13705;BME280;6924;52.122;9.952;2023-08-24T08:07:52;100643.66;;;19.36;100.00
13705;BME280;6924;52.122;9.952;2023-08-24T08:10:18;100636.69;;;19.37;100.00
13705;BME280;6924;52.122;9.952;2023-08-24T08:12:46;100632.50;;;19.50;100.00
13705;BME280;6924;52.122;9.952;2023-08-24T08:15:13;100627.31;;;19.56;100.00
13705;BME280;6924;52.122;9.952;2023-08-24T08:17:39;100636.38;;;19.74;100.00
13705;BME280;6924;52.122;9.952;2023-08-24T08:20:09;100636.38;;;19.74;100.00
13705;BME280;6924;52.122;9.952;2023-08-24T08:22:37;100624.25;;;19.84;100.00
13705;BME280;6924;52.122;9.952;2023-08-24T08:25:04;100633.66;;;20.00;100.00
13705;BME280;6924;52.122;9.952;2023-08-24T08:27:31;100623.00;;;20.01;100.00
13705;BME280;6924;52.122;9.952;2023-08-24T08:29:58;100616.78;;;19.99;100.00
13705;BME280;6924;52.122;9.952;2023-08-24T08:32:25;100614.53;;;20.08;100.00
13705;BME280;6924;52.122;9.952;2023-08-24T08:34:53;100617.63;;;20.19;98.36
13705;BME280;6924;52.122;9.952;2023-08-24T08:37:20;100616.19;;;20.29;99.43
13705;BME280;6924;52.122;9.952;2023-08-24T08:39:47;100606.53;;;20.17;98.67
13705;BME280;6924;52.122;9.952;2023-08-24T08:42:14;100611.13;;;20.22;100.00
13705;BME280;6924;52.122;9.952;2023-08-24T08:44:41;100619.56;;;20.15;100.00
13705;BME280;6924;52.122;9.952;2023-08-24T08:47:09;100619.44;;;20.08;96.54
13705;BME280;6924;52.122;9.952;2023-08-24T08:49:37;100619.56;;;20.15;100.00
13705;BME280;6924;52.122;9.952;2023-08-24T08:52:05;100613.84;;;20.15;100.00
13705;BME280;6924;52.122;9.952;2023-08-24T08:54:33;100623.66;;;20.33;100.00
13705;BME280;6924;52.122;9.952;2023-08-24T08:57:00;100617.50;;;20.35;96.92
13705;BME280;6924;52.122;9.952;2023-08-24T08:59:28;100609.56;;;20.48;97.76
13705;BME280;6924;52.122;9.952;2023-08-24T09:01:56;100615.53;;;20.58;96.34
13705;BME280;6924;52.122;9.952;2023-08-24T09:04:26;100608.84;;;20.74;95.69
13705;BME280;6924;52.122;9.952;2023-08-24T09:06:53;100608.78;;;20.93;93.97
13705;BME280;6924;52.122;9.952;2023-08-24T09:09:21;100605.03;;;21.16;93.95
13705;BME280;6924;52.122;9.952;2023-08-24T09:11:50;100618.97;;;21.14;90.98
13705;BME280;6924;52.122;9.952;2023-08-24T09:14:16;100619.75;;;21.37;91.82
13705;BME280;6924;52.122;9.952;2023-08-24T09:16:43;100607.34;;;21.56;92.95
13705;BME280;6924;52.122;9.952;2023-08-24T09:19:11;100604.25;;;21.72;91.82
13705;BME280;6924;52.122;9.952;2023-08-24T09:21:39;100603.47;;;21.75;89.70
13705;BME280;6924;52.122;9.952;2023-08-24T09:24:07;100597.34;;;21.80;91.18
13705;BME280;6924;52.122;9.952;2023-08-24T09:26:35;100598.47;;;22.02;89.78
13705;BME280;6924;52.122;9.952;2023-08-24T09:29:12;100596.59;;;22.17;88.27
13705;BME280;6924;52.122;9.952;2023-08-24T09:31:39;100593.63;;;22.44;89.81
13705;BME280;6924;52.122;9.952;2023-08-24T09:34:06;100588.78;;;22.55;86.45
13705;BME280;6924;52.122;9.952;2023-08-24T09:36:34;100587.59;;;22.56;84.79
13705;BME280;6924;52.122;9.952;2023-08-24T09:39:01;100573.66;;;22.65;83.60
13705;BME280;6924;52.122;9.952;2023-08-24T09:41:39;100581.22;;;22.81;84.35
13705;BME280;6924;52.122;9.952;2023-08-24T09:44:06;100589.16;;;22.91;83.92
13705;BME280;6924;52.122;9.952;2023-08-24T09:46:34;100581.00;;;23.00;81.91
13705;BME280;6924;52.122;9.952;2023-08-24T09:49:03;100586.38;;;23.05;81.25
13705;BME280;6924;52.122;9.952;2023-08-24T09:51:32;100572.06;;;23.16;80.30
13705;BME280;6924;52.122;9.952;2023-08-24T09:54:02;100580.81;;;23.34;81.97
13705;BME280;6924;52.122;9.952;2023-08-24T09:56:34;100565.25;;;23.46;81.84
13705;BME280;6924;52.122;9.952;2023-08-24T09:59:07;100549.25;;;23.70;81.33
13705;BME280;6924;52.122;9.952;2023-08-24T10:01:36;100553.06;;;23.78;80.67
13705;BME280;6924;52.122;9.952;2023-08-24T10:04:05;100553.94;;;23.92;79.66
13705;BME280;6924;52.122;9.952;2023-08-24T10:06:32;100550.72;;;24.12;78.47
13705;BME280;6924;52.122;9.952;2023-08-24T10:09:02;100546.19;;;24.29;78.45
13705;BME280;6924;52.122;9.952;2023-08-24T10:11:35;100546.63;;;24.31;75.81
13705;BME280;6924;52.122;9.952;2023-08-24T10:14:07;100544.16;;;24.37;77.16
13705;BME280;6924;52.122;9.952;2023-08-24T10:16:36;100541.66;;;24.28;74.82
13705;BME280;6924;52.122;9.952;2023-08-24T10:19:04;100521.88;;;24.41;75.63
13705;BME280;6924;52.122;9.952;2023-08-24T10:21:31;100514.88;;;24.56;72.73
13705;BME280;6924;52.122;9.952;2023-08-24T10:23:57;100504.13;;;24.60;72.42
13705;BME280;6924;52.122;9.952;2023-08-24T10:26:26;100503.75;;;24.62;72.26
13705;BME280;6924;52.122;9.952;2023-08-24T10:28:53;100500.03;;;24.72;73.04
13705;BME280;6924;52.122;9.952;2023-08-24T10:31:20;100499.19;;;24.79;68.72
13705;BME280;6924;52.122;9.952;2023-08-24T10:33:49;100498.34;;;24.89;69.93
13705;BME280;6924;52.122;9.952;2023-08-24T10:36:16;100485.97;;;24.74;69.92
13705;BME280;6924;52.122;9.952;2023-08-24T10:38:43;100481.41;;;24.80;68.44
13705;BME280;6924;52.122;9.952;2023-08-24T10:41:10;100469.00;;;25.01;70.91
13705;BME280;6924;52.122;9.952;2023-08-24T10:43:39;100466.91;;;25.16;69.68
13705;BME280;6924;52.122;9.952;2023-08-24T10:46:12;100470.22;;;25.29;68.20
13705;BME280;6924;52.122;9.952;2023-08-24T10:49:03;100469.75;;;25.34;67.82
13705;BME280;6924;52.122;9.952;2023-08-24T10:51:30;100466.81;;;25.48;66.67
13705;BME280;6924;52.122;9.952;2023-08-24T10:53:58;100465.59;;;25.39;66.48
13705;BME280;6924;52.122;9.952;2023-08-24T10:56:30;100481.28;;;25.48;67.08
13705;BME280;6924;52.122;9.952;2023-08-24T10:59:11;100479.63;;;25.47;66.69
13705;BME280;6924;52.122;9.952;2023-08-24T11:01:39;100482.53;;;25.44;64.36
13705;BME280;6924;52.122;9.952;2023-08-24T11:04:08;100477.56;;;25.51;64.36
13705;BME280;6924;52.122;9.952;2023-08-24T11:06:51;100479.19;;;25.52;64.26
13705;BME280;6924;52.122;9.952;2023-08-24T11:09:18;100464.69;;;25.60;64.67
13705;BME280;6924;52.122;9.952;2023-08-24T11:11:55;100462.31;;;25.40;62.37
13705;BME280;6924;52.122;9.952;2023-08-24T11:14:22;100465.56;;;25.46;64.43
13705;BME280;6924;52.122;9.952;2023-08-24T11:16:52;100467.66;;;25.42;65.72
13705;BME280;6924;52.122;9.952;2023-08-24T11:19:20;100450.69;;;25.47;64.05
13705;BME280;6924;52.122;9.952;2023-08-24T11:21:47;100455.22;;;25.52;61.39
13705;BME280;6924;52.122;9.952;2023-08-24T11:24:14;100460.09;;;25.66;58.94
13705;BME280;6924;52.122;9.952;2023-08-24T11:26:41;100463.03;;;25.62;56.89
13705;BME280;6924;52.122;9.952;2023-08-24T11:29:08;100466.34;;;25.64;60.93
13705;BME280;6924;52.122;9.952;2023-08-24T11:31:35;100467.47;;;25.88;60.82
13705;BME280;6924;52.122;9.952;2023-08-24T11:34:02;100468.22;;;26.03;59.22
13705;BME280;6924;52.122;9.952;2023-08-24T11:36:30;100467.84;;;25.97;57.79
13705;BME280;6924;52.122;9.952;2023-08-24T11:38:58;100450.72;;;26.17;59.77
13705;BME280;6924;52.122;9.952;2023-08-24T11:41:26;100448.94;;;26.34;61.38
13705;BME280;6924;52.122;9.952;2023-08-24T11:43:59;100439.81;;;26.36;58.50
13705;BME280;6924;52.122;9.952;2023-08-24T11:46:28;100430.00;;;26.19;57.09
13705;BME280;6924;52.122;9.952;2023-08-24T11:48:57;100423.91;;;26.03;58.82
13705;BME280;6924;52.122;9.952;2023-08-24T11:51:24;100417.66;;;26.11;59.25
13705;BME280;6924;52.122;9.952;2023-08-24T11:53:51;100416.63;;;26.32;62.94
13705;BME280;6924;52.122;9.952;2023-08-24T11:56:18;100408.66;;;26.47;63.98
13705;BME280;6924;52.122;9.952;2023-08-24T11:58:49;100398.19;;;26.61;62.08
13705;BME280;6924;52.122;9.952;2023-08-24T12:01:16;100388.59;;;26.67;60.40
13705;BME280;6924;52.122;9.952;2023-08-24T12:03:43;100390.59;;;26.74;61.60
13705;BME280;6924;52.122;9.952;2023-08-24T12:06:10;100385.28;;;26.69;57.66
13705;BME280;6924;52.122;9.952;2023-08-24T12:08:38;100383.59;;;26.71;59.45
13705;BME280;6924;52.122;9.952;2023-08-24T12:11:12;100383.84;;;26.43;57.63
13705;BME280;6924;52.122;9.952;2023-08-24T12:13:42;100376.44;;;26.34;58.97
13705;BME280;6924;52.122;9.952;2023-08-24T12:16:10;100367.41;;;26.25;58.26
13705;BME280;6924;52.122;9.952;2023-08-24T12:18:46;100369.53;;;26.21;57.97
13705;BME280;6924;52.122;9.952;2023-08-24T12:21:13;100354.63;;;26.23;57.93
13705;BME280;6924;52.122;9.952;2023-08-24T12:23:39;100345.94;;;26.19;58.89
13705;BME280;6924;52.122;9.952;2023-08-24T12:26:06;100334.16;;;26.41;60.39
13705;BME280;6924;52.122;9.952;2023-08-24T12:28:34;100325.84;;;26.43;58.32
13705;BME280;6924;52.122;9.952;2023-08-24T12:31:01;100318.63;;;26.20;56.76
13705;BME280;6924;52.122;9.952;2023-08-24T12:33:31;100317.69;;;26.30;59.74
13705;BME280;6924;52.122;9.952;2023-08-24T12:35:58;100312.63;;;26.38;57.76
13705;BME280;6924;52.122;9.952;2023-08-24T12:38:25;100291.59;;;26.30;58.51
13705;BME280;6924;52.122;9.952;2023-08-24T12:40:52;100289.59;;;26.24;59.69
13705;BME280;6924;52.122;9.952;2023-08-24T12:43:19;100292.75;;;26.40;61.02
13705;BME280;6924;52.122;9.952;2023-08-24T12:45:47;100291.91;;;26.39;57.36
13705;BME280;6924;52.122;9.952;2023-08-24T12:48:14;100288.47;;;26.52;60.05
13705;BME280;6924;52.122;9.952;2023-08-24T12:50:40;100283.88;;;26.58;59.39
13705;BME280;6924;52.122;9.952;2023-08-24T12:53:07;100278.06;;;26.58;59.02
13705;BME280;6924;52.122;9.952;2023-08-24T12:55:35;100277.69;;;26.52;58.58
13705;BME280;6924;52.122;9.952;2023-08-24T12:58:02;100287.13;;;26.64;59.23